Ana Sayfa
METAR-TAF:

METAR-TAF

Havaalanları :

Caracas, Venezuela

Enlem: 10-36N, Boylam: 066-59W, yükseklik: 43 m

Güncel hava durumu gözlemi

Rapor saat 00:02 UTC de 39 dakika önce yapıldı.
Rüzgar doğudan 5 kt
Sıcaklık
Basınç 1015 hPa

METAR: SVMI 280002Z AUTO 08005KT NCD ///// Q1015

Saat: 20:41 (00:41 UTC)

Tahmin

Rapor saat 22:00 UTC de 2 saat ve 41 dakika önce yapıldı.
Ayın 28'si saat 00 UTC'den ayın 29'si saat 00 UTC'ye kadar geçerli Tahmin
Rüzgar doğudan 3 kt
Görüş mesafesi 10 km veya daha fazla
1600 ft yükseklikte az bulutlu
Dönüşüyor
ayın 28'si saat 00 UTC'den ayın 28'si saat 04 UTC'ye kadar
Rüzgar doğudan 5 kt
Görüş mesafesi 10 km veya daha fazla
1600 ft yükseklikte parçalı bulutlu

TAF: SVMI 272200Z 2800/2900 09003KT 9999 FEW016 TX29/16Z TN23/08Z BECMG 2800/2804 09005KT 9999 SCT016

4.000'den fazla havaalanı için hava durumu gözlemleri ve tahminleri (METAR ve TAF raporları).

Kullanılabilir istasyonlar harita üzerinde sarı ve kırmızı noktalarla gösterilir.

İstasyonun adını görmek için fareyi noktanın üzerinde gezdirin.

Sonrasında hava gözlem ve tahminlerini görmek için tıklayın.

Haritayı değiştirmek için: yaklaştırmak için siyah artı işaretli yeşil düğmeye ve uzaklaştırmak için de eksi işaretli düğmeye hızla tıklayın; bitişik haritalar için yeşil okları kullanın.


METAR-TAF: